Time;durP1;ratioP1;P1;durP2;ratioP2;P2;SDS_P1;SDS_P2;PMS_P1;PMS_P2;Temp;Humidity;BMP_temperature;BMP_pressure;BME280_temperature;BME280_humidity;BME280_pressure;Samples;Min_cycle;Max_cycle;Signal;HPM_P1;HPM_P2
2023/03/02 00:01:18;;;;;;;17.80;7.53;;;;;;;1.70;100.00;96247.72;5036975;28;20231;-71
2023/03/02 00:03:44;;;;;;;22.93;8.13;;;;;;;1.65;100.00;96244.66;5036695;28;20201;-71
2023/03/02 00:06:13;;;;;;;24.77;8.53;;;;;;;1.65;100.00;96252.47;5036859;28;20763;-74
2023/03/02 00:08:40;;;;;;;27.93;8.80;;;;;;;1.68;100.00;96244.44;5037422;28;20240;-73
2023/03/02 00:11:07;;;;;;;23.83;8.97;;;;;;;1.73;100.00;96242.28;5037192;28;20216;-73
2023/03/02 00:13:35;;;;;;;21.53;8.37;;;;;;;1.78;100.00;96245.31;5036438;28;20996;-71
2023/03/02 00:16:01;;;;;;;26.80;8.70;;;;;;;1.63;100.00;96248.34;5037338;28;20209;-74
2023/03/02 00:18:28;;;;;;;17.97;7.97;;;;;;;1.62;100.00;96239.72;5036448;28;20219;-72
2023/03/02 00:20:55;;;;;;;22.77;7.53;;;;;;;1.56;100.00;96254.97;5037093;28;20228;-73
2023/03/02 00:23:23;;;;;;;32.00;8.93;;;;;;;1.73;100.00;96252.66;5037717;28;20202;-73
2023/03/02 00:25:49;;;;;;;21.73;8.30;;;;;;;1.65;100.00;96252.47;5036843;28;20906;-74
2023/03/02 00:28:15;;;;;;;22.97;8.03;;;;;;;1.64;100.00;96256.00;5037191;28;20222;-73
2023/03/02 00:30:42;;;;;;;21.73;8.77;;;;;;;1.57;100.00;96257.44;5036635;28;20210;-73
2023/03/02 00:33:08;;;;;;;24.80;8.90;;;;;;;1.59;100.00;96250.38;5037014;28;20225;-71
2023/03/02 00:35:39;;;;;;;24.93;7.73;;;;;;;1.69;100.00;96251.25;5036009;28;20270;-72
2023/03/02 00:38:06;;;;;;;23.17;9.17;;;;;;;1.56;100.00;96250.59;5037198;28;20210;-74
2023/03/02 00:40:34;;;;;;;29.87;9.27;;;;;;;1.72;100.00;96245.00;5036386;28;20201;-71
2023/03/02 00:43:00;;;;;;;27.13;9.70;;;;;;;1.54;100.00;96255.09;5037395;28;20229;-74
2023/03/02 00:45:27;;;;;;;20.83;8.40;;;;;;;1.51;100.00;96257.94;5035576;28;20205;-71
2023/03/02 00:47:53;;;;;;;21.87;8.20;;;;;;;1.59;100.00;96255.56;5036321;28;20205;-74
2023/03/02 00:50:20;;;;;;;16.87;7.10;;;;;;;1.56;100.00;96258.38;5037215;28;20205;-73
2023/03/02 00:52:46;;;;;;;22.00;7.37;;;;;;;1.55;100.00;96255.91;5036668;28;20731;-74
2023/03/02 00:55:13;;;;;;;18.77;6.97;;;;;;;1.44;100.00;96256.78;5035382;28;20201;-70
2023/03/02 00:57:41;;;;;;;18.77;7.90;;;;;;;1.46;100.00;96261.84;5036698;28;20972;-73
2023/03/02 01:00:09;;;;;;;16.00;6.90;;;;;;;1.57;100.00;96265.22;5036098;28;20216;-73
2023/03/02 01:02:37;;;;;;;18.37;6.57;;;;;;;1.52;100.00;96256.16;5036153;28;20237;-71
2023/03/02 01:05:05;;;;;;;25.93;9.57;;;;;;;1.54;100.00;96252.50;5035713;28;20296;-73
2023/03/02 01:07:31;;;;;;;25.87;9.27;;;;;;;1.46;100.00;96248.88;5036011;28;20696;-73
2023/03/02 01:09:58;;;;;;;24.20;7.17;;;;;;;1.55;100.00;96237.75;5036818;28;20220;-72
2023/03/02 01:12:24;;;;;;;16.93;7.23;;;;;;;1.52;100.00;96236.22;5035926;28;20227;-71
2023/03/02 01:14:52;;;;;;;24.83;8.90;;;;;;;1.63;100.00;96231.00;5035596;28;20229;-71
2023/03/02 01:17:20;;;;;;;26.53;8.33;;;;;;;1.57;100.00;96226.28;5036364;28;20206;-74
2023/03/02 01:19:47;;;;;;;20.40;7.40;;;;;;;1.55;100.00;96222.97;5035809;28;20221;-74
2023/03/02 01:22:13;;;;;;;23.80;7.07;;;;;;;1.57;100.00;96212.50;5036242;28;20236;-72
2023/03/02 01:24:40;;;;;;;21.23;8.23;;;;;;;1.55;100.00;96207.41;5035283;28;20216;-74
2023/03/02 01:27:07;;;;;;;20.40;7.57;;;;;;;1.59;100.00;96207.97;5036217;28;20220;-73
2023/03/02 01:29:33;;;;;;;21.23;7.93;;;;;;;1.51;100.00;96220.75;5035148;28;20214;-72
2023/03/02 01:32:01;;;;;;;19.37;7.53;;;;;;;1.51;100.00;96211.19;5035820;28;20233;-70
2023/03/02 01:34:27;;;;;;;24.87;9.27;;;;;;;1.44;100.00;96210.06;5035240;28;20226;-72
2023/03/02 01:36:54;;;;;;;16.63;7.30;;;;;;;1.36;100.00;96207.25;5035862;28;20213;-74
2023/03/02 01:39:21;;;;;;;28.10;8.67;;;;;;;1.36;100.00;96209.84;5036275;28;20588;-71
2023/03/02 01:41:50;;;;;;;22.83;7.40;;;;;;;1.40;100.00;96205.22;5036176;28;20229;-71
2023/03/02 01:44:44;;;;;;;19.87;8.00;;;;;;;1.49;100.00;96197.53;5035232;28;20212;-73
2023/03/02 01:47:19;;;;;;;18.07;6.33;;;;;;;1.50;100.00;96203.53;5035484;28;20206;-73
2023/03/02 01:49:49;;;;;;;25.83;8.77;;;;;;;1.51;100.00;96197.41;5035685;28;20205;-71
2023/03/02 01:52:17;;;;;;;19.73;7.20;;;;;;;1.50;100.00;96194.00;5035842;28;20581;-74
2023/03/02 01:54:48;;;;;;;21.97;8.33;;;;;;;1.53;100.00;96188.53;5035366;28;20228;-73
2023/03/02 01:57:18;;;;;;;24.47;7.87;;;;;;;1.47;100.00;96188.22;5035320;28;20320;-72
2023/03/02 01:59:45;;;;;;;20.40;8.40;;;;;;;1.45;100.00;96195.28;5035982;28;20205;-74
2023/03/02 02:02:12;;;;;;;18.43;7.20;;;;;;;1.57;100.00;96195.13;5035700;28;20235;-72
2023/03/02 02:04:44;;;;;;;19.47;7.27;;;;;;;1.49;100.00;96187.16;5034869;28;20209;-73
2023/03/02 02:07:11;;;;;;;20.13;8.90;;;;;;;1.39;100.00;96186.22;5035992;28;20205;-71
2023/03/02 02:09:43;;;;;;;24.23;7.20;;;;;;;1.55;100.00;96180.63;5035870;28;20228;-74
2023/03/02 02:12:14;;;;;;;17.10;6.60;;;;;;;1.59;100.00;96169.88;5035701;28;20236;-71
2023/03/02 02:14:42;;;;;;;17.37;6.83;;;;;;;1.41;100.00;96181.75;5034739;28;20734;-72
2023/03/02 02:17:09;;;;;;;22.10;7.37;;;;;;;1.39;100.00;96175.03;5035785;28;20220;-74
2023/03/02 02:19:47;;;;;;;27.33;8.03;;;;;;;1.53;100.00;96178.16;5035329;28;20962;-74
2023/03/02 02:22:18;;;;;;;26.33;8.83;;;;;;;1.51;100.00;96181.81;5035453;28;20324;-73
2023/03/02 02:24:51;;;;;;;22.10;7.47;;;;;;;1.55;100.00;96185.81;5034626;28;20205;-72
2023/03/02 02:27:19;;;;;;;17.63;6.33;;;;;;;1.47;100.00;96177.81;5035530;28;20221;-72
2023/03/02 02:29:49;;;;;;;22.13;8.47;;;;;;;1.50;100.00;96173.22;5035535;28;20220;-71
2023/03/02 02:32:19;;;;;;;23.03;7.73;;;;;;;1.53;100.00;96172.16;5035804;28;20236;-74
2023/03/02 02:34:50;;;;;;;20.27;7.27;;;;;;;1.57;100.00;96174.34;5035125;28;20767;-72
2023/03/02 02:37:22;;;;;;;19.30;7.20;;;;;;;1.54;100.00;96174.63;5035599;28;20220;-72
2023/03/02 02:39:50;;;;;;;21.70;8.50;;;;;;;1.36;100.00;96173.50;5035778;28;20216;-74
2023/03/02 02:42:22;;;;;;;20.30;6.63;;;;;;;1.36;100.00;96170.91;5036718;28;20243;-72
2023/03/02 02:44:49;;;;;;;24.27;7.73;;;;;;;1.31;100.00;96165.25;5038934;28;20579;-73
2023/03/02 02:47:19;;;;;;;18.23;7.33;;;;;;;1.33;100.00;96160.75;5038496;28;20216;-72
2023/03/02 02:49:47;;;;;;;21.47;7.63;;;;;;;1.37;100.00;96169.94;5039054;28;20202;-74
2023/03/02 02:52:16;;;;;;;25.90;7.60;;;;;;;1.17;100.00;96172.47;5039197;28;20221;-74
2023/03/02 02:54:46;;;;;;;18.70;6.33;;;;;;;1.26;100.00;96167.41;5038186;28;20257;-72
2023/03/02 02:57:16;;;;;;;23.90;8.37;;;;;;;1.27;100.00;96158.66;5038670;28;20975;-71
2023/03/02 02:59:47;;;;;;;21.83;7.53;;;;;;;1.24;100.00;96153.72;5038472;28;20211;-73
2023/03/02 03:02:18;;;;;;;23.17;7.53;;;;;;;1.27;100.00;96161.28;5038740;28;20263;-73
2023/03/02 03:04:45;;;;;;;23.53;8.30;;;;;;;1.14;100.00;96153.75;5035045;28;20220;-73
2023/03/02 03:07:19;;;;;;;23.87;7.97;;;;;;;1.28;100.00;96155.09;5037932;28;20763;-73
2023/03/02 03:09:48;;;;;;;27.17;8.77;;;;;;;1.23;100.00;96153.84;5038865;28;20225;-74
2023/03/02 03:12:19;;;;;;;14.90;5.90;;;;;;;1.28;100.00;96157.69;5038534;28;20236;-72
2023/03/02 03:14:48;;;;;;;23.57;7.83;;;;;;;1.20;100.00;96165.28;5037787;28;20225;-72
2023/03/02 03:17:14;;;;;;;22.13;7.57;;;;;;;1.17;100.00;96158.69;5038125;28;20215;-72
2023/03/02 03:19:43;;;;;;;17.43;7.03;;;;;;;1.24;100.00;96156.31;5037852;28;21075;-73
2023/03/02 03:22:11;;;;;;;22.67;6.77;;;;;;;1.21;100.00;96150.56;5038374;28;20248;-71
2023/03/02 03:24:39;;;;;;;18.63;6.67;;;;;;;1.04;100.00;96158.03;5037798;28;20205;-74
2023/03/02 03:27:06;;;;;;;23.50;8.13;;;;;;;1.22;100.00;96149.59;5038447;28;20205;-71
2023/03/02 03:29:34;;;;;;;19.03;7.67;;;;;;;1.20;100.00;96149.72;5037846;28;20234;-72
2023/03/02 03:32:03;;;;;;;15.93;6.93;;;;;;;1.18;100.00;96142.19;5038211;28;20225;-73
2023/03/02 03:34:31;;;;;;;21.80;7.50;;;;;;;1.06;100.00;96145.75;5036757;28;20213;-74
2023/03/02 03:37:00;;;;;;;18.30;6.80;;;;;;;1.16;100.00;96144.06;5038650;28;20209;-73
2023/03/02 03:39:27;;;;;;;21.20;7.93;;;;;;;1.14;100.00;96140.78;5037844;28;20251;-72
2023/03/02 03:41:54;;;;;;;26.50;8.83;;;;;;;1.22;100.00;96145.25;5038224;28;20867;-72
2023/03/02 03:44:21;;;;;;;32.77;8.63;;;;;;;1.18;100.00;96149.97;5037489;28;20214;-74
2023/03/02 03:46:47;;;;;;;23.73;8.00;;;;;;;1.06;100.00;96153.53;5037890;28;20225;-72
2023/03/02 03:49:15;;;;;;;23.40;7.13;;;;;;;1.19;100.00;96147.25;5037522;28;20216;-74
2023/03/02 03:51:41;;;;;;;22.67;7.03;;;;;;;1.22;100.00;96147.84;5037655;28;20248;-74
2023/03/02 03:54:09;;;;;;;20.90;7.00;;;;;;;1.28;100.00;96152.50;5036407;28;20232;-73
2023/03/02 03:56:38;;;;;;;23.67;7.13;;;;;;;1.23;100.00;96148.66;5038054;28;20201;-74
2023/03/02 03:59:08;;;;;;;25.70;8.00;;;;;;;1.22;100.00;96142.66;5037801;28;20209;-74
2023/03/02 04:01:37;;;;;;;29.87;7.03;;;;;;;1.11;100.00;96143.59;5037368;28;20344;-75
2023/03/02 04:04:07;;;;;;;22.90;8.73;;;;;;;1.17;100.00;96145.72;5037038;28;20202;-72
2023/03/02 04:06:34;;;;;;;21.27;7.83;;;;;;;1.03;100.00;96149.44;5037360;28;20209;-72
2023/03/02 04:09:03;;;;;;;21.80;7.87;;;;;;;1.07;100.00;96147.41;5037759;28;20213;-74
2023/03/02 04:11:30;;;;;;;19.00;6.77;;;;;;;0.97;100.00;96146.47;5037521;28;20308;-74
2023/03/02 04:13:57;;;;;;;20.97;6.73;;;;;;;1.10;100.00;96150.56;5036491;28;20221;-72
2023/03/02 04:16:23;;;;;;;24.47;8.03;;;;;;;1.08;100.00;96149.88;5037385;28;20207;-75
2023/03/02 04:18:50;;;;;;;22.30;7.87;;;;;;;0.80;100.00;96159.97;5037306;28;20213;-72
2023/03/02 04:21:16;;;;;;;21.07;7.63;;;;;;;0.87;100.00;96155.94;5037165;28;20223;-74
2023/03/02 04:23:44;;;;;;;18.07;7.50;;;;;;;1.02;100.00;96162.50;5036197;28;20213;-73
2023/03/02 04:26:11;;;;;;;21.03;6.93;;;;;;;1.08;100.00;96162.03;5037333;28;20580;-72
2023/03/02 04:28:37;;;;;;;22.40;7.60;;;;;;;1.09;100.00;96163.69;5037210;28;20725;-74
2023/03/02 04:31:04;;;;;;;27.60;7.77;;;;;;;1.11;100.00;96167.81;5037223;28;20201;-73
2023/03/02 04:33:31;;;;;;;17.87;6.57;;;;;;;1.12;100.00;96163.44;5036214;28;20208;-73
2023/03/02 04:35:58;;;;;;;19.13;7.00;;;;;;;1.03;100.00;96170.19;5036671;28;20236;-73
2023/03/02 04:38:28;;;;;;;24.30;7.33;;;;;;;0.98;100.00;96161.94;5036608;28;20206;-74
2023/03/02 04:40:56;;;;;;;18.27;7.77;;;;;;;1.14;100.00;96162.34;5037503;28;20746;-74
2023/03/02 04:43:24;;;;;;;17.47;7.13;;;;;;;0.89;100.00;96154.88;5036424;28;20217;-72
2023/03/02 04:45:51;;;;;;;22.50;6.70;;;;;;;1.02;100.00;96165.09;5036730;28;20197;-74
2023/03/02 04:48:18;;;;;;;19.70;7.67;;;;;;;1.03;100.00;96156.38;5036746;28;20212;-73
2023/03/02 04:50:44;;;;;;;24.17;7.77;;;;;;;0.99;100.00;96157.56;5037413;28;20214;-74
2023/03/02 04:53:11;;;;;;;23.90;8.40;;;;;;;0.94;100.00;96160.53;5036941;28;20588;-73
2023/03/02 04:55:38;;;;;;;21.47;7.40;;;;;;;0.96;100.00;96161.22;5036435;28;21179;-73
2023/03/02 04:58:06;;;;;;;20.07;8.30;;;;;;;1.01;100.00;96151.31;5036526;28;20307;-74
2023/03/02 05:00:34;;;;;;;24.13;7.70;;;;;;;0.89;100.00;96154.03;5036194;28;20707;-75
2023/03/02 05:03:01;;;;;;;24.13;7.93;;;;;;;0.88;100.00;96157.56;5037453;28;20291;-74
2023/03/02 05:05:28;;;;;;;22.40;6.80;;;;;;;0.84;100.00;96158.75;5035117;28;20744;-74
2023/03/02 05:07:57;;;;;;;20.07;7.63;;;;;;;0.90;100.00;96153.91;5037547;28;20669;-72
2023/03/02 05:10:24;;;;;;;20.97;6.40;;;;;;;0.96;100.00;96160.41;5036441;28;20206;-72
2023/03/02 05:13:03;;;;;;;21.77;7.70;;;;;;;0.94;100.00;96157.94;5036169;28;20231;-72
2023/03/02 05:15:34;;;;;;;18.93;7.77;;;;;;;1.06;100.00;96161.31;5035610;28;20256;-73
2023/03/02 05:18:01;;;;;;;17.83;6.93;;;;;;;1.06;100.00;96154.38;5035810;28;20627;-73
2023/03/02 05:20:30;;;;;;;21.07;7.57;;;;;;;1.09;100.00;96148.94;5036099;28;20203;-73
2023/03/02 05:22:58;;;;;;;24.53;7.33;;;;;;;1.03;100.00;96154.63;5036066;28;20229;-72
2023/03/02 05:25:25;;;;;;;21.03;7.43;;;;;;;0.82;100.00;96143.34;5035829;28;20208;-71
2023/03/02 05:27:52;;;;;;;22.47;7.07;;;;;;;0.94;100.00;96146.72;5037339;28;20212;-74
2023/03/02 05:30:20;;;;;;;20.73;6.77;;;;;;;1.01;100.00;96151.31;5036264;28;20201;-73
2023/03/02 05:32:48;;;;;;;27.00;8.47;;;;;;;0.98;100.00;96141.19;5035875;28;20723;-72
2023/03/02 05:35:14;;;;;;;23.20;8.20;;;;;;;0.92;100.00;96151.22;5035772;28;20231;-73
2023/03/02 05:37:43;;;;;;;19.23;6.87;;;;;;;0.94;100.00;96146.72;5035921;28;20862;-72
2023/03/02 05:40:12;;;;;;;23.83;8.10;;;;;;;0.95;100.00;96149.19;5035969;28;21472;-74
2023/03/02 05:42:39;;;;;;;24.60;6.97;;;;;;;0.85;100.00;96152.63;5035730;28;20593;-73
2023/03/02 05:45:08;;;;;;;19.03;7.20;;;;;;;0.82;100.00;96155.50;5035397;28;20201;-74
2023/03/02 05:47:34;;;;;;;20.07;7.43;;;;;;;0.80;100.00;96154.78;5035761;28;20205;-74
2023/03/02 05:50:02;;;;;;;20.60;7.13;;;;;;;0.93;100.00;96161.47;5036533;28;20315;-74
2023/03/02 05:52:29;;;;;;;17.30;6.83;;;;;;;0.84;100.00;96161.34;5035672;28;20575;-74
2023/03/02 05:54:55;;;;;;;25.53;8.47;;;;;;;0.88;100.00;96175.72;5035823;28;20225;-74
2023/03/02 05:57:22;;;;;;;23.60;7.40;;;;;;;0.88;100.00;96171.38;5035615;28;20233;-73
2023/03/02 05:59:49;;;;;;;20.43;7.77;;;;;;;0.89;100.00;96169.59;5035535;28;20652;-74
2023/03/02 06:02:16;;;;;;;24.57;7.30;;;;;;;0.95;100.00;96169.13;5036033;28;20225;-72
2023/03/02 06:04:43;;;;;;;21.00;7.53;;;;;;;0.96;100.00;96170.78;5034924;28;20213;-75
2023/03/02 06:07:11;;;;;;;19.83;7.57;;;;;;;0.93;100.00;96171.00;5035012;28;20213;-74
2023/03/02 06:09:38;;;;;;;24.07;7.23;;;;;;;1.00;100.00;96169.59;5035341;28;20216;-74
2023/03/02 06:12:06;;;;;;;24.03;7.50;;;;;;;1.02;100.00;96170.28;5036114;28;20232;-74
2023/03/02 06:14:32;;;;;;;24.97;8.77;;;;;;;0.93;100.00;96171.84;5034711;28;20202;-74
2023/03/02 06:16:59;;;;;;;25.03;8.50;;;;;;;1.07;100.00;96178.53;5036864;28;20209;-74
2023/03/02 06:19:26;;;;;;;20.53;7.63;;;;;;;1.07;100.00;96183.72;5039319;28;20213;-75
2023/03/02 06:21:52;;;;;;;25.27;7.57;;;;;;;1.22;100.00;96184.16;5039561;28;20226;-73
2023/03/02 06:24:20;;;;;;;18.27;7.27;;;;;;;1.33;100.00;96175.50;5038448;28;20206;-75
2023/03/02 06:26:47;;;;;;;23.73;7.90;;;;;;;1.15;100.00;96186.56;5039789;28;20205;-73
2023/03/02 06:29:13;;;;;;;20.20;7.30;;;;;;;1.33;100.00;96188.50;5038938;28;20210;-72
2023/03/02 06:31:40;;;;;;;26.87;7.67;;;;;;;1.33;100.00;96186.72;5038814;28;20232;-74
2023/03/02 06:34:06;;;;;;;27.63;8.67;;;;;;;1.35;100.00;96184.00;5038918;28;20212;-74
2023/03/02 06:36:33;;;;;;;20.07;7.17;;;;;;;1.33;100.00;96191.91;5038745;28;20705;-74
2023/03/02 06:38:59;;;;;;;25.10;8.17;;;;;;;1.34;100.00;96193.56;5039201;28;20213;-73
2023/03/02 06:41:27;;;;;;;24.87;8.30;;;;;;;1.51;100.00;96190.41;5038846;28;20232;-72
2023/03/02 06:43:53;;;;;;;21.90;7.10;;;;;;;1.41;100.00;96193.88;5038149;28;20733;-71
2023/03/02 06:46:20;;;;;;;24.47;8.57;;;;;;;1.46;100.00;96194.34;5038952;28;20208;-74
2023/03/02 06:48:46;;;;;;;19.73;7.50;;;;;;;1.56;100.00;96193.47;5038919;28;20206;-72
2023/03/02 06:51:16;;;;;;;23.77;8.43;;;;;;;1.71;100.00;96201.81;5038968;28;20200;-73
2023/03/02 06:53:43;;;;;;;21.93;7.53;;;;;;;1.55;100.00;96202.22;5038953;28;20210;-74
2023/03/02 06:56:10;;;;;;;24.47;8.10;;;;;;;1.72;100.00;96200.84;5038650;28;20228;-73
2023/03/02 06:58:38;;;;;;;31.43;8.10;;;;;;;1.86;100.00;96206.59;5038780;28;20210;-75
2023/03/02 07:01:06;;;;;;;31.23;9.10;;;;;;;1.87;100.00;96206.44;5040071;28;20213;-73
2023/03/02 07:03:33;;;;;;;19.97;7.33;;;;;;;1.90;100.00;96210.56;5040045;28;20202;-72
2023/03/02 07:05:59;;;;;;;32.70;8.93;;;;;;;1.92;100.00;96211.25;5038886;28;20201;-72
2023/03/02 07:08:26;;;;;;;21.20;8.17;;;;;;;1.87;100.00;96208.22;5038464;28;20208;-73
2023/03/02 07:10:52;;;;;;;22.93;7.63;;;;;;;1.83;100.00;96206.81;5039721;28;20212;-75
2023/03/02 07:13:19;;;;;;;33.33;8.83;;;;;;;1.99;100.00;96202.03;5038037;28;20744;-71
2023/03/02 07:15:47;;;;;;;21.27;7.50;;;;;;;2.12;100.00;96206.06;5037797;28;20226;-76
2023/03/02 07:18:14;;;;;;;24.93;8.40;;;;;;;2.21;100.00;96212.28;5038751;28;20965;-76
2023/03/02 07:20:40;;;;;;;22.10;7.90;;;;;;;2.23;100.00;96200.81;5038435;28;21388;-74
2023/03/02 07:23:07;;;;;;;24.67;8.63;;;;;;;2.30;100.00;96201.13;5037260;28;20231;-76
2023/03/02 07:25:34;;;;;;;19.57;7.27;;;;;;;2.27;100.00;96204.00;5037190;28;20206;-74
2023/03/02 07:28:01;;;;;;;20.63;6.83;;;;;;;2.27;100.00;96207.41;5037906;28;20294;-73
2023/03/02 07:30:27;;;;;;;25.77;8.30;;;;;;;2.43;100.00;96206.00;5037607;28;20215;-75
2023/03/02 07:32:55;;;;;;;21.30;8.17;;;;;;;2.46;100.00;96207.50;5038478;28;20232;-73
2023/03/02 07:35:21;;;;;;;20.97;7.87;;;;;;;2.41;100.00;96209.66;5037150;28;20237;-75
2023/03/02 07:37:48;;;;;;;20.40;7.53;;;;;;;2.46;100.00;96221.31;5038151;28;20825;-74
2023/03/02 07:40:14;;;;;;;20.70;7.73;;;;;;;2.52;100.00;96217.38;5038348;28;20205;-73
2023/03/02 07:42:41;;;;;;;23.97;7.93;;;;;;;2.60;100.00;96221.00;5038129;28;20228;-76
2023/03/02 07:45:08;;;;;;;24.63;8.10;;;;;;;2.54;100.00;96225.88;5037349;28;20205;-74
2023/03/02 07:47:35;;;;;;;25.50;8.60;;;;;;;2.58;100.00;96222.06;5037455;28;20672;-74
2023/03/02 07:50:03;;;;;;;24.57;7.60;;;;;;;2.70;100.00;96219.28;5037900;28;20212;-72
2023/03/02 07:52:30;;;;;;;26.13;8.27;;;;;;;2.64;100.00;96224.16;5035713;28;20546;-74
2023/03/02 07:54:56;;;;;;;29.07;8.37;;;;;;;2.54;100.00;96231.91;5035990;28;20204;-74
2023/03/02 07:57:23;;;;;;;26.57;8.30;;;;;;;2.52;100.00;96228.63;5036818;28;20208;-73
2023/03/02 07:59:50;;;;;;;23.70;7.17;;;;;;;2.79;100.00;96221.09;5037479;28;20212;-72
2023/03/02 08:02:19;;;;;;;30.00;8.13;;;;;;;2.84;100.00;96224.13;5037102;28;20237;-73
2023/03/02 08:04:45;;;;;;;19.07;7.13;;;;;;;2.84;100.00;96224.13;5035879;28;20698;-76
2023/03/02 08:07:13;;;;;;;20.40;8.60;;;;;;;2.78;100.00;96229.84;5037560;28;20208;-73
2023/03/02 08:09:40;;;;;;;20.73;7.50;;;;;;;2.83;100.00;96232.88;5036742;28;20649;-73
2023/03/02 08:12:06;;;;;;;22.47;7.73;;;;;;;2.95;100.00;96231.00;5036819;28;20232;-76
2023/03/02 08:14:33;;;;;;;19.53;8.00;;;;;;;2.93;100.00;96228.53;5036103;28;20208;-76
2023/03/02 08:16:59;;;;;;;25.30;9.00;;;;;;;3.13;100.00;96227.63;5037537;28;20235;-76
2023/03/02 08:19:26;;;;;;;25.90;8.37;;;;;;;3.22;100.00;96222.47;5036623;28;20211;-74
2023/03/02 08:21:53;;;;;;;23.37;7.90;;;;;;;3.24;100.00;96222.34;5037060;28;20227;-76
2023/03/02 08:24:20;;;;;;;19.50;7.07;;;;;;;3.35;99.08;96219.63;5036123;28;20651;-73
2023/03/02 08:26:47;;;;;;;18.97;7.43;;;;;;;3.41;98.09;96219.06;5036447;28;20593;-74
2023/03/02 08:29:13;;;;;;;27.03;9.10;;;;;;;3.40;99.74;96217.41;5036170;28;20900;-72
2023/03/02 08:31:40;;;;;;;27.23;8.33;;;;;;;3.58;100.00;96215.81;5036962;28;20224;-74
2023/03/02 08:34:06;;;;;;;22.53;7.87;;;;;;;3.42;98.95;96218.94;5036761;28;20231;-75
2023/03/02 08:36:33;;;;;;;30.93;8.80;;;;;;;3.62;100.00;96213.63;5035125;28;20228;-75
2023/03/02 08:38:59;;;;;;;25.37;8.27;;;;;;;3.80;98.77;96211.97;5036708;28;20209;-72
2023/03/02 08:41:27;;;;;;;23.57;8.57;;;;;;;3.81;98.11;96208.41;5035627;28;20758;-74
2023/03/02 08:43:56;;;;;;;25.10;8.77;;;;;;;4.10;97.59;96206.63;5035801;28;20687;-72
2023/03/02 08:46:22;;;;;;;23.83;8.63;;;;;;;4.03;97.67;96217.75;5036646;28;20220;-74
2023/03/02 08:48:50;;;;;;;25.83;7.70;;;;;;;3.89;98.21;96218.97;5036976;28;20223;-73
2023/03/02 08:51:18;;;;;;;26.23;8.50;;;;;;;4.16;96.68;96215.69;5037195;28;20854;-73
2023/03/02 08:53:47;;;;;;;25.97;10.00;;;;;;;4.65;96.99;96217.09;5036326;28;20197;-75
2023/03/02 08:56:24;;;;;;;24.73;9.10;;;;;;;4.76;93.83;96218.72;5032606;28;20224;-74
2023/03/02 08:58:53;;;;;;;27.33;9.97;;;;;;;4.65;94.38;96216.28;5034949;28;20568;-73
2023/03/02 09:01:22;;;;;;;21.97;8.83;;;;;;;4.79;93.66;96215.84;5034752;28;20236;-75
2023/03/02 09:03:49;;;;;;;19.70;7.93;;;;;;;4.67;92.17;96219.56;5033848;28;20201;-75
2023/03/02 09:06:16;;;;;;;26.87;8.63;;;;;;;4.74;94.20;96215.44;5035083;28;20202;-75
2023/03/02 09:08:43;;;;;;;26.50;7.63;;;;;;;4.77;91.15;96215.13;5035363;28;20221;-75
2023/03/02 09:11:10;;;;;;;24.63;8.47;;;;;;;4.59;93.54;96216.84;5034669;28;20596;-73
2023/03/02 09:13:37;;;;;;;21.87;8.03;;;;;;;4.81;92.23;96224.31;5034723;28;20209;-73
2023/03/02 09:16:07;;;;;;;25.60;8.80;;;;;;;5.00;92.74;96223.31;5035427;28;20232;-74
2023/03/02 09:18:34;;;;;;;23.47;8.30;;;;;;;4.99;91.35;96220.81;5034855;28;20213;-73
2023/03/02 09:21:01;;;;;;;25.20;9.30;;;;;;;4.91;90.14;96224.16;5035391;28;20205;-75
2023/03/02 09:23:29;;;;;;;25.20;8.50;;;;;;;5.20;91.18;96213.59;5034713;28;20572;-73
2023/03/02 09:25:56;;;;;;;27.77;8.20;;;;;;;5.33;90.28;96222.72;5035607;28;20201;-74
2023/03/02 09:28:23;;;;;;;26.40;8.83;;;;;;;5.30;87.86;96214.38;5035125;28;20216;-74
2023/03/02 09:30:51;;;;;;;25.33;9.10;;;;;;;5.22;89.30;96228.16;5034244;28;20209;-75
2023/03/02 09:33:19;;;;;;;31.67;9.30;;;;;;;5.34;89.86;96221.75;5035297;28;20240;-71
2023/03/02 09:35:46;;;;;;;22.43;8.13;;;;;;;5.40;89.51;96215.94;5033827;28;20225;-75
2023/03/02 09:38:15;;;;;;;28.67;9.57;;;;;;;5.37;89.47;96224.06;5034760;28;20366;-76
2023/03/02 09:41:17;;;;;;;29.83;9.67;;;;;;;5.74;89.68;96215.19;5035376;28;20209;-73
2023/03/02 09:43:53;;;;;;;29.40;9.87;;;;;;;5.80;88.62;96213.78;5033983;28;20216;-72
2023/03/02 09:46:25;;;;;;;29.17;11.07;;;;;;;5.70;88.35;96219.06;5033266;28;20211;-73
2023/03/02 09:49:07;;;;;;;25.77;9.87;;;;;;;6.04;85.48;96210.41;5033644;28;20204;-72
2023/03/02 09:51:39;;;;;;;25.03;9.63;;;;;;;5.84;86.91;96209.91;5035681;28;20233;-74
2023/03/02 09:54:09;;;;;;;26.60;10.10;;;;;;;5.85;86.13;96216.78;5034447;28;20216;-74
2023/03/02 09:56:39;;;;;;;24.50;9.50;;;;;;;5.91;86.66;96210.97;5038201;28;20266;-71
2023/03/02 09:59:13;;;;;;;20.03;9.13;;;;;;;5.79;88.47;96212.13;5038909;28;20204;-72
2023/03/02 10:01:46;;;;;;;29.43;10.90;;;;;;;5.96;86.20;96209.53;5037429;28;20716;-72
2023/03/02 10:04:21;;;;;;;24.40;11.03;;;;;;;5.93;86.75;96211.63;5037935;28;20212;-73
2023/03/02 10:06:48;;;;;;;31.77;13.17;;;;;;;5.81;87.18;96211.03;5038845;28;20215;-72
2023/03/02 10:09:15;;;;;;;36.93;16.97;;;;;;;5.74;86.21;96214.34;5038306;28;20299;-75
2023/03/02 10:11:59;;;;;;;23.27;9.40;;;;;;;5.89;84.75;96213.72;5038823;28;21571;-73
2023/03/02 10:14:32;;;;;;;27.63;9.40;;;;;;;5.78;84.96;96216.56;5037783;28;20208;-73
2023/03/02 10:17:22;;;;;;;23.57;9.17;;;;;;;6.06;86.51;96213.72;5037385;28;20224;-73
2023/03/02 10:19:56;;;;;;;26.80;10.97;;;;;;;6.54;85.18;96216.69;5037534;28;20466;-74
2023/03/02 10:22:29;;;;;;;22.40;8.87;;;;;;;6.82;80.41;96210.34;5037913;28;20220;-73
2023/03/02 10:25:05;;;;;;;23.63;9.77;;;;;;;7.22;81.03;96207.94;5037453;28;20216;-74
2023/03/02 10:27:38;;;;;;;23.87;8.27;;;;;;;7.51;79.66;96202.16;5036523;28;20203;-74
2023/03/02 10:30:14;;;;;;;22.80;8.87;;;;;;;7.57;77.54;96204.13;5038263;28;20205;-72
2023/03/02 10:32:45;;;;;;;25.67;10.07;;;;;;;7.71;77.93;96206.13;5037420;28;20724;-75
2023/03/02 10:35:16;;;;;;;23.57;8.67;;;;;;;7.69;79.05;96200.25;5037311;28;20210;-75
2023/03/02 10:37:42;;;;;;;21.10;7.90;;;;;;;7.45;80.87;96210.66;5038535;28;20239;-72
2023/03/02 10:40:24;;;;;;;25.23;9.40;;;;;;;7.84;80.24;96210.91;5038219;28;20212;-74
2023/03/02 10:42:50;;;;;;;22.03;8.83;;;;;;;7.96;81.64;96218.34;5038380;28;20236;-75
2023/03/02 10:45:25;;;;;;;22.03;9.30;;;;;;;8.10;81.14;96215.06;5037151;28;20202;-73
2023/03/02 10:47:59;;;;;;;25.93;8.57;;;;;;;8.05;77.86;96214.75;5038955;28;20200;-73
2023/03/02 10:50:29;;;;;;;20.23;8.83;;;;;;;7.93;77.67;96218.66;5038135;28;20220;-72
2023/03/02 10:52:56;;;;;;;26.57;9.03;;;;;;;7.93;75.99;96213.41;5038626;28;21009;-73
2023/03/02 10:55:22;;;;;;;19.33;8.63;;;;;;;7.95;75.54;96214.06;5037266;28;20811;-71
2023/03/02 10:58:00;;;;;;;20.60;8.30;;;;;;;8.01;76.67;96218.69;5038458;28;20236;-75
2023/03/02 11:00:29;;;;;;;21.13;8.93;;;;;;;8.11;75.63;96214.09;5038140;28;20266;-75
2023/03/02 11:02:57;;;;;;;24.43;8.70;;;;;;;7.87;77.84;96214.06;5038338;28;20240;-73
2023/03/02 11:05:30;;;;;;;19.53;8.53;;;;;;;8.22;76.52;96217.25;5036922;28;20201;-75
2023/03/02 11:07:58;;;;;;;20.47;8.47;;;;;;;8.12;76.75;96210.47;5038492;28;20567;-75
2023/03/02 11:10:27;;;;;;;24.77;9.27;;;;;;;8.02;74.26;96209.81;5038302;28;20681;-71
2023/03/02 11:12:55;;;;;;;22.63;9.00;;;;;;;8.06;74.85;96211.13;5038232;28;20294;-72
2023/03/02 11:15:24;;;;;;;22.27;8.43;;;;;;;8.28;73.58;96219.22;5036581;28;20677;-73
2023/03/02 11:18:00;;;;;;;26.60;9.33;;;;;;;7.85;76.40;96208.13;5038186;28;20229;-73
2023/03/02 11:20:30;;;;;;;23.20;8.93;;;;;;;7.75;78.47;96210.09;5037484;28;20201;-73
2023/03/02 11:23:14;;;;;;;20.77;8.53;;;;;;;8.08;77.24;96207.38;5038486;28;20232;-73
2023/03/02 11:25:47;;;;;;;23.53;8.63;;;;;;;7.97;77.79;96206.88;5036996;28;20274;-72
2023/03/02 11:28:25;;;;;;;22.63;9.33;;;;;;;7.83;76.53;96198.78;5037820;28;20212;-73
2023/03/02 11:30:55;;;;;;;19.80;8.50;;;;;;;7.87;76.62;96206.19;5038392;28;20227;-72
2023/03/02 11:33:26;;;;;;;21.60;8.70;;;;;;;8.01;76.32;96200.31;5037494;28;20228;-72